sensor_id;sensor_type;location;lat;lon;timestamp;P1;durP1;ratioP1;P2;durP2;ratioP2
68647;SDS011;55632;51.962;16.116;2022-10-16T00:02:31;17.90;;;10.35;;
68647;SDS011;55632;51.962;16.116;2022-10-16T00:07:34;15.32;;;10.02;;
68647;SDS011;55632;51.962;16.116;2022-10-16T00:12:35;17.08;;;10.48;;
68647;SDS011;55632;51.962;16.116;2022-10-16T00:17:39;14.13;;;9.98;;
68647;SDS011;55632;51.962;16.116;2022-10-16T00:22:42;17.38;;;9.07;;
68647;SDS011;55632;51.962;16.116;2022-10-16T00:27:48;12.77;;;8.85;;
68647;SDS011;55632;51.962;16.116;2022-10-16T00:32:49;12.07;;;8.32;;
68647;SDS011;55632;51.962;16.116;2022-10-16T00:37:52;12.20;;;8.77;;
68647;SDS011;55632;51.962;16.116;2022-10-16T00:42:53;15.10;;;10.10;;
68647;SDS011;55632;51.962;16.116;2022-10-16T00:47:54;16.10;;;9.68;;
68647;SDS011;55632;51.962;16.116;2022-10-16T00:52:56;14.82;;;9.73;;
68647;SDS011;55632;51.962;16.116;2022-10-16T00:58:01;13.00;;;9.82;;
68647;SDS011;55632;51.962;16.116;2022-10-16T01:03:03;12.23;;;8.60;;
68647;SDS011;55632;51.962;16.116;2022-10-16T01:08:28;16.17;;;10.32;;
68647;SDS011;55632;51.962;16.116;2022-10-16T01:13:38;15.48;;;9.80;;
68647;SDS011;55632;51.962;16.116;2022-10-16T01:18:44;15.13;;;9.13;;
68647;SDS011;55632;51.962;16.116;2022-10-16T01:23:51;12.88;;;9.07;;
68647;SDS011;55632;51.962;16.116;2022-10-16T01:34:45;22.63;;;13.38;;
68647;SDS011;55632;51.962;16.116;2022-10-16T01:39:58;23.05;;;11.15;;
68647;SDS011;55632;51.962;16.116;2022-10-16T01:45:00;16.25;;;10.40;;
68647;SDS011;55632;51.962;16.116;2022-10-16T01:50:03;15.27;;;9.07;;
68647;SDS011;55632;51.962;16.116;2022-10-16T01:55:06;11.88;;;9.30;;
68647;SDS011;55632;51.962;16.116;2022-10-16T02:00:10;15.63;;;8.88;;
68647;SDS011;55632;51.962;16.116;2022-10-16T02:05:18;13.18;;;8.68;;
68647;SDS011;55632;51.962;16.116;2022-10-16T02:10:24;12.82;;;8.07;;
68647;SDS011;55632;51.962;16.116;2022-10-16T02:15:25;11.43;;;8.82;;
68647;SDS011;55632;51.962;16.116;2022-10-16T02:20:32;11.07;;;8.55;;
68647;SDS011;55632;51.962;16.116;2022-10-16T02:25:40;13.63;;;8.97;;
68647;SDS011;55632;51.962;16.116;2022-10-16T02:30:47;13.07;;;9.00;;
68647;SDS011;55632;51.962;16.116;2022-10-16T02:35:52;13.13;;;8.20;;
68647;SDS011;55632;51.962;16.116;2022-10-16T02:40:54;11.75;;;8.55;;
68647;SDS011;55632;51.962;16.116;2022-10-16T02:45:56;11.45;;;8.20;;
68647;SDS011;55632;51.962;16.116;2022-10-16T02:51:02;9.88;;;7.80;;
68647;SDS011;55632;51.962;16.116;2022-10-16T02:56:03;12.30;;;8.05;;
68647;SDS011;55632;51.962;16.116;2022-10-16T03:01:04;17.50;;;10.20;;
68647;SDS011;55632;51.962;16.116;2022-10-16T03:06:10;10.68;;;7.72;;
68647;SDS011;55632;51.962;16.116;2022-10-16T03:11:11;9.57;;;7.60;;
68647;SDS011;55632;51.962;16.116;2022-10-16T03:16:12;11.50;;;7.45;;
68647;SDS011;55632;51.962;16.116;2022-10-16T03:21:13;10.80;;;8.32;;
68647;SDS011;55632;51.962;16.116;2022-10-16T03:26:14;9.85;;;6.63;;
68647;SDS011;55632;51.962;16.116;2022-10-16T03:31:21;9.85;;;7.28;;
68647;SDS011;55632;51.962;16.116;2022-10-16T03:36:25;8.60;;;7.20;;
68647;SDS011;55632;51.962;16.116;2022-10-16T03:41:26;15.30;;;8.70;;
68647;SDS011;55632;51.962;16.116;2022-10-16T03:46:35;8.80;;;7.35;;
68647;SDS011;55632;51.962;16.116;2022-10-16T03:51:36;10.13;;;6.53;;
68647;SDS011;55632;51.962;16.116;2022-10-16T03:56:37;9.60;;;7.15;;
68647;SDS011;55632;51.962;16.116;2022-10-16T04:01:39;7.25;;;5.95;;
68647;SDS011;55632;51.962;16.116;2022-10-16T04:06:43;8.07;;;6.50;;
68647;SDS011;55632;51.962;16.116;2022-10-16T04:11:44;8.45;;;7.07;;
68647;SDS011;55632;51.962;16.116;2022-10-16T04:16:44;8.70;;;6.65;;
68647;SDS011;55632;51.962;16.116;2022-10-16T04:21:45;7.22;;;6.13;;
68647;SDS011;55632;51.962;16.116;2022-10-16T04:26:50;7.95;;;6.20;;
68647;SDS011;55632;51.962;16.116;2022-10-16T04:31:51;10.95;;;6.53;;
68647;SDS011;55632;51.962;16.116;2022-10-16T04:36:52;9.63;;;6.78;;
68647;SDS011;55632;51.962;16.116;2022-10-16T04:41:52;7.80;;;6.78;;
68647;SDS011;55632;51.962;16.116;2022-10-16T04:46:54;9.68;;;6.53;;
68647;SDS011;55632;51.962;16.116;2022-10-16T04:51:58;21.67;;;11.52;;
68647;SDS011;55632;51.962;16.116;2022-10-16T04:56:58;9.48;;;7.53;;
68647;SDS011;55632;51.962;16.116;2022-10-16T05:01:59;37.13;;;16.95;;
68647;SDS011;55632;51.962;16.116;2022-10-16T05:07:04;11.80;;;9.13;;
68647;SDS011;55632;51.962;16.116;2022-10-16T05:12:08;19.48;;;11.43;;
68647;SDS011;55632;51.962;16.116;2022-10-16T05:17:13;10.63;;;8.70;;
68647;SDS011;55632;51.962;16.116;2022-10-16T05:22:16;32.65;;;21.05;;
68647;SDS011;55632;51.962;16.116;2022-10-16T05:27:17;17.73;;;11.93;;
68647;SDS011;55632;51.962;16.116;2022-10-16T05:32:20;11.70;;;8.43;;
68647;SDS011;55632;51.962;16.116;2022-10-16T05:37:21;10.80;;;8.43;;
68647;SDS011;55632;51.962;16.116;2022-10-16T05:42:22;18.02;;;10.75;;
68647;SDS011;55632;51.962;16.116;2022-10-16T05:47:23;10.75;;;8.57;;
68647;SDS011;55632;51.962;16.116;2022-10-16T05:52:24;12.90;;;9.70;;
68647;SDS011;55632;51.962;16.116;2022-10-16T05:57:25;12.57;;;9.52;;
68647;SDS011;55632;51.962;16.116;2022-10-16T06:02:26;18.13;;;13.52;;
68647;SDS011;55632;51.962;16.116;2022-10-16T06:07:27;15.63;;;10.98;;
68647;SDS011;55632;51.962;16.116;2022-10-16T06:12:33;18.00;;;12.63;;
68647;SDS011;55632;51.962;16.116;2022-10-16T06:17:34;12.30;;;9.52;;
68647;SDS011;55632;51.962;16.116;2022-10-16T06:22:35;17.15;;;11.15;;
68647;SDS011;55632;51.962;16.116;2022-10-16T06:27:38;15.40;;;9.40;;
68647;SDS011;55632;51.962;16.116;2022-10-16T06:32:40;12.48;;;9.70;;
68647;SDS011;55632;51.962;16.116;2022-10-16T06:37:41;14.20;;;9.52;;
68647;SDS011;55632;51.962;16.116;2022-10-16T06:42:42;12.73;;;8.50;;
68647;SDS011;55632;51.962;16.116;2022-10-16T06:47:48;13.27;;;8.75;;
68647;SDS011;55632;51.962;16.116;2022-10-16T06:52:49;10.00;;;8.93;;
68647;SDS011;55632;51.962;16.116;2022-10-16T06:57:50;12.38;;;9.45;;
68647;SDS011;55632;51.962;16.116;2022-10-16T07:02:55;12.77;;;9.10;;
68647;SDS011;55632;51.962;16.116;2022-10-16T07:07:56;12.90;;;9.18;;
68647;SDS011;55632;51.962;16.116;2022-10-16T07:12:57;22.63;;;12.93;;
68647;SDS011;55632;51.962;16.116;2022-10-16T07:17:57;14.02;;;8.82;;
68647;SDS011;55632;51.962;16.116;2022-10-16T07:22:58;10.15;;;7.25;;
68647;SDS011;55632;51.962;16.116;2022-10-16T07:28:02;9.23;;;7.35;;
68647;SDS011;55632;51.962;16.116;2022-10-16T07:33:03;7.80;;;6.93;;
68647;SDS011;55632;51.962;16.116;2022-10-16T07:38:04;8.52;;;7.60;;
68647;SDS011;55632;51.962;16.116;2022-10-16T07:43:05;9.85;;;8.30;;
68647;SDS011;55632;51.962;16.116;2022-10-16T07:48:06;9.77;;;7.65;;
68647;SDS011;55632;51.962;16.116;2022-10-16T07:53:07;8.93;;;7.00;;
68647;SDS011;55632;51.962;16.116;2022-10-16T07:58:11;10.45;;;7.18;;
68647;SDS011;55632;51.962;16.116;2022-10-16T08:03:12;13.40;;;7.05;;
68647;SDS011;55632;51.962;16.116;2022-10-16T08:08:14;7.78;;;5.32;;
68647;SDS011;55632;51.962;16.116;2022-10-16T08:13:16;6.63;;;5.15;;
68647;SDS011;55632;51.962;16.116;2022-10-16T08:18:17;7.18;;;5.30;;
68647;SDS011;55632;51.962;16.116;2022-10-16T08:23:18;10.80;;;6.55;;
68647;SDS011;55632;51.962;16.116;2022-10-16T08:28:19;6.25;;;5.55;;
68647;SDS011;55632;51.962;16.116;2022-10-16T08:33:19;11.55;;;5.97;;
68647;SDS011;55632;51.962;16.116;2022-10-16T08:38:20;8.07;;;5.80;;
68647;SDS011;55632;51.962;16.116;2022-10-16T08:48:49;4.93;;;4.15;;
68647;SDS011;55632;51.962;16.116;2022-10-16T08:53:58;5.53;;;4.07;;
68647;SDS011;55632;51.962;16.116;2022-10-16T08:59:03;4.18;;;3.30;;
68647;SDS011;55632;51.962;16.116;2022-10-16T09:09:47;6.55;;;4.30;;
68647;SDS011;55632;51.962;16.116;2022-10-16T09:25:36;6.60;;;3.92;;
68647;SDS011;55632;51.962;16.116;2022-10-16T09:30:39;8.25;;;5.55;;
68647;SDS011;55632;51.962;16.116;2022-10-16T09:35:42;10.50;;;6.10;;
68647;SDS011;55632;51.962;16.116;2022-10-16T09:40:45;4.40;;;3.88;;
68647;SDS011;55632;51.962;16.116;2022-10-16T09:57:30;11.75;;;6.38;;
68647;SDS011;55632;51.962;16.116;2022-10-16T10:02:33;13.35;;;4.80;;
68647;SDS011;55632;51.962;16.116;2022-10-16T10:07:38;5.07;;;3.80;;
68647;SDS011;55632;51.962;16.116;2022-10-16T10:12:44;10.05;;;5.22;;
68647;SDS011;55632;51.962;16.116;2022-10-16T10:17:49;15.65;;;7.40;;
68647;SDS011;55632;51.962;16.116;2022-10-16T10:22:54;6.43;;;3.30;;
68647;SDS011;55632;51.962;16.116;2022-10-16T11:00:13;6.88;;;4.60;;
68647;SDS011;55632;51.962;16.116;2022-10-16T11:05:41;7.72;;;4.60;;
68647;SDS011;55632;51.962;16.116;2022-10-16T11:11:02;4.35;;;3.08;;
68647;SDS011;55632;51.962;16.116;2022-10-16T11:16:19;4.28;;;2.90;;
68647;SDS011;55632;51.962;16.116;2022-10-16T11:21:26;4.97;;;3.22;;
68647;SDS011;55632;51.962;16.116;2022-10-16T11:26:42;10.30;;;4.82;;
68647;SDS011;55632;51.962;16.116;2022-10-16T11:31:47;5.15;;;2.90;;
68647;SDS011;55632;51.962;16.116;2022-10-16T11:42:22;6.82;;;4.30;;
68647;SDS011;55632;51.962;16.116;2022-10-16T11:53:35;6.22;;;3.85;;
68647;SDS011;55632;51.962;16.116;2022-10-16T11:59:05;5.45;;;2.55;;
68647;SDS011;55632;51.962;16.116;2022-10-16T12:04:26;2.45;;;2.25;;
68647;SDS011;55632;51.962;16.116;2022-10-16T12:09:38;4.25;;;2.20;;
68647;SDS011;55632;51.962;16.116;2022-10-16T12:14:40;2.10;;;1.85;;
68647;SDS011;55632;51.962;16.116;2022-10-16T12:19:41;3.70;;;2.50;;
68647;SDS011;55632;51.962;16.116;2022-10-16T12:24:42;2.63;;;2.40;;
68647;SDS011;55632;51.962;16.116;2022-10-16T12:29:43;3.85;;;2.03;;
68647;SDS011;55632;51.962;16.116;2022-10-16T12:34:44;3.38;;;2.22;;
68647;SDS011;55632;51.962;16.116;2022-10-16T12:39:46;2.33;;;2.00;;
68647;SDS011;55632;51.962;16.116;2022-10-16T12:44:49;7.30;;;2.25;;
68647;SDS011;55632;51.962;16.116;2022-10-16T12:49:51;3.97;;;2.42;;
68647;SDS011;55632;51.962;16.116;2022-10-16T12:54:57;2.90;;;2.50;;
68647;SDS011;55632;51.962;16.116;2022-10-16T13:16:41;1.50;;;1.40;;
68647;SDS011;55632;51.962;16.116;2022-10-16T13:32:29;4.10;;;2.33;;
68647;SDS011;55632;51.962;16.116;2022-10-16T13:37:31;3.47;;;2.13;;
68647;SDS011;55632;51.962;16.116;2022-10-16T13:42:31;4.55;;;2.13;;
68647;SDS011;55632;51.962;16.116;2022-10-16T13:47:33;3.72;;;2.47;;
68647;SDS011;55632;51.962;16.116;2022-10-16T13:52:34;5.70;;;3.00;;
68647;SDS011;55632;51.962;16.116;2022-10-16T13:57:35;6.78;;;3.28;;
68647;SDS011;55632;51.962;16.116;2022-10-16T14:02:37;14.27;;;6.63;;
68647;SDS011;55632;51.962;16.116;2022-10-16T14:07:40;4.68;;;3.58;;
